Time;durP1;ratioP1;P1;durP2;ratioP2;P2;SDS_P1;SDS_P2;PMS_P1;PMS_P2;Temp;Humidity;BMP_temperature;BMP_pressure;BME280_temperature;BME280_humidity;BME280_pressure;Samples;Min_cycle;Max_cycle;Signal;HPM_P1;HPM_P2
2022/05/03 00:00:09;;;;;;;8.10;7.60;;;14.80;99.90;;;;;;10378172;28;20210;-84
2022/05/03 00:05:16;;;;;;;9.53;8.83;;;14.80;99.90;;;;;;10390589;28;20226;-83
2022/05/03 00:10:25;;;;;;;9.63;8.77;;;14.90;99.90;;;;;;10366575;28;20207;-82
2022/05/03 00:15:27;;;;;;;9.90;9.20;;;14.80;99.90;;;;;;10368975;28;20305;-83
2022/05/03 00:20:30;;;;;;;9.17;8.57;;;14.80;99.90;;;;;;10368674;28;20203;-82
2022/05/03 00:25:34;;;;;;;10.50;9.70;;;14.80;99.90;;;;;;10371143;28;20222;-82
2022/05/03 00:30:38;;;;;;;8.73;8.13;;;14.70;99.90;;;;;;10355385;28;20253;-82
2022/05/03 00:35:41;;;;;;;9.40;8.70;;;14.70;99.90;;;;;;10347837;28;20673;-82
2022/05/03 00:40:53;;;;;;;9.50;8.80;;;14.60;99.90;;;;;;10374167;28;20281;-82
2022/05/03 00:46:02;;;;;;;9.70;9.00;;;14.60;99.90;;;;;;10376885;28;20276;-84
2022/05/03 00:51:12;;;;;;;10.10;9.30;;;14.50;99.90;;;;;;10377518;28;20251;-83
2022/05/03 00:56:29;;;;;;;11.07;10.17;;;14.50;99.90;;;;;;10375672;28;20297;-83
2022/05/03 01:01:43;;;;;;;10.77;9.77;;;14.40;99.90;;;;;;10367888;28;20253;-82
2022/05/03 01:06:54;;;;;;;10.50;9.60;;;14.30;99.90;;;;;;10353432;28;20222;-85
2022/05/03 01:12:13;;;;;;;10.30;9.50;;;14.20;99.90;;;;;;10380065;28;20209;-82
2022/05/03 01:17:22;;;;;;;11.90;10.87;;;14.20;99.90;;;;;;10376843;28;20639;-83
2022/05/03 01:22:49;;;;;;;11.47;10.43;;;14.10;99.90;;;;;;10352766;28;20206;-82
2022/05/03 01:28:04;;;;;;;11.70;10.90;;;14.10;99.90;;;;;;10377927;28;20218;-82
2022/05/03 01:33:09;;;;;;;12.90;11.70;;;14.00;99.90;;;;;;10377287;28;20712;-82
2022/05/03 01:38:29;;;;;;;13.87;12.57;;;13.90;99.90;;;;;;10376794;28;20203;-82
2022/05/03 01:43:51;;;;;;;15.07;13.77;;;13.80;99.90;;;;;;10375890;28;20221;-82
2022/05/03 01:54:55;;;;;;;17.17;15.67;;;13.70;99.90;;;;;;10374945;28;20223;-85
2022/05/03 02:00:07;;;;;;;16.40;14.90;;;13.60;99.90;;;;;;10357479;28;20198;-82
2022/05/03 02:05:24;;;;;;;17.30;15.80;;;13.50;99.90;;;;;;10376541;28;20214;-84
2022/05/03 02:10:42;;;;;;;18.13;16.40;;;13.50;99.90;;;;;;10363409;28;20199;-83
2022/05/03 02:15:49;;;;;;;17.57;16.07;;;13.40;99.90;;;;;;10370901;28;20293;-85
2022/05/03 02:21:11;;;;;;;18.57;16.97;;;13.40;99.90;;;;;;10363183;28;20198;-82
2022/05/03 02:26:24;;;;;;;18.90;17.20;;;13.30;99.90;;;;;;10371660;28;20312;-83
2022/05/03 02:31:36;;;;;;;18.73;17.13;;;13.30;99.90;;;;;;10366363;28;20207;-82
2022/05/03 02:36:46;;;;;;;20.40;18.70;;;13.20;99.90;;;;;;10374294;28;20227;-84
2022/05/03 02:41:51;;;;;;;20.77;19.03;;;13.20;99.90;;;;;;10370524;28;20293;-82
2022/05/03 02:47:04;;;;;;;20.03;18.33;;;13.10;99.90;;;;;;10355805;28;20336;-82
2022/05/03 02:52:14;;;;;;;20.13;18.43;;;13.10;99.90;;;;;;10371562;28;20632;-82
2022/05/03 02:57:26;;;;;;;19.97;18.37;;;13.10;99.90;;;;;;10353493;28;20198;-82
2022/05/03 03:02:35;;;;;;;19.97;18.30;;;13.00;99.90;;;;;;10354798;28;20291;-83
2022/05/03 03:07:47;;;;;;;19.10;17.50;;;13.00;99.90;;;;;;10371619;28;20230;-82
2022/05/03 03:12:56;;;;;;;21.20;19.50;;;13.00;99.90;;;;;;10369205;28;20505;-82
2022/05/03 03:17:59;;;;;;;21.53;19.73;;;12.90;99.90;;;;;;10372888;28;20292;-82
2022/05/03 03:23:03;;;;;;;22.33;20.33;;;12.90;99.90;;;;;;10371827;28;20225;-82
2022/05/03 03:28:09;;;;;;;21.70;19.77;;;12.80;99.90;;;;;;10372995;28;20472;-83
2022/05/03 03:33:14;;;;;;;21.23;19.37;;;12.90;99.90;;;;;;10347312;28;20268;-83
2022/05/03 03:38:20;;;;;;;24.37;22.30;;;12.80;99.90;;;;;;10354335;28;20202;-83
2022/05/03 03:43:22;;;;;;;25.17;22.80;;;12.90;99.90;;;;;;10368066;28;20672;-82
2022/05/03 03:48:25;;;;;;;22.70;20.60;;;12.90;99.90;;;;;;10369305;28;20219;-82
2022/05/03 03:53:30;;;;;;;22.00;20.00;;;12.90;99.90;;;;;;10375459;28;20226;-82
2022/05/03 03:58:33;;;;;;;22.70;20.67;;;12.90;99.90;;;;;;10364103;28;20224;-82
2022/05/03 04:03:37;;;;;;;21.20;19.20;;;12.80;99.90;;;;;;10369227;28;20278;-82
2022/05/03 04:08:41;;;;;;;22.37;20.47;;;12.80;99.90;;;;;;10363665;28;20642;-83
2022/05/03 04:13:43;;;;;;;20.70;19.00;;;12.80;99.90;;;;;;10377130;28;20214;-82
2022/05/03 04:18:46;;;;;;;21.90;20.10;;;12.80;99.90;;;;;;10374319;28;20591;-83
2022/05/03 04:23:49;;;;;;;23.70;21.57;;;12.80;99.90;;;;;;10378944;28;20258;-84
2022/05/03 04:28:55;;;;;;;22.23;20.33;;;12.80;99.90;;;;;;10380701;28;20206;-83
2022/05/03 04:33:58;;;;;;;22.00;20.07;;;12.80;99.90;;;;;;10384041;28;20337;-83
2022/05/03 04:39:03;;;;;;;21.93;20.03;;;12.80;99.90;;;;;;10379434;28;20610;-84
2022/05/03 04:44:06;;;;;;;21.80;19.83;;;12.70;99.90;;;;;;10372960;28;20269;-84
2022/05/03 04:49:08;;;;;;;21.57;19.77;;;12.80;99.90;;;;;;10358826;28;20217;-83
2022/05/03 04:54:11;;;;;;;23.67;21.60;;;12.80;99.90;;;;;;10357039;28;20220;-85
2022/05/03 04:59:13;;;;;;;23.00;21.00;;;12.80;99.90;;;;;;10338327;28;20211;-85
2022/05/03 05:04:16;;;;;;;23.40;21.30;;;12.80;99.90;;;;;;10349295;28;20214;-86
2022/05/03 05:09:19;;;;;;;24.10;22.10;;;12.90;99.90;;;;;;10378575;28;20198;-85
2022/05/03 05:14:22;;;;;;;24.43;22.00;;;12.90;99.90;;;;;;10343243;28;20222;-84
2022/05/03 05:19:24;;;;;;;21.70;19.90;;;13.00;99.90;;;;;;10354900;28;20305;-85
2022/05/03 05:24:27;;;;;;;23.83;21.67;;;13.00;99.90;;;;;;10373613;28;20265;-84
2022/05/03 05:29:29;;;;;;;23.90;21.50;;;13.10;99.90;;;;;;10352764;28;20207;-83
2022/05/03 05:34:32;;;;;;;23.47;21.17;;;13.20;99.90;;;;;;10393527;23;20317;-80
2022/05/03 05:39:35;;;;;;;22.60;20.60;;;13.30;99.90;;;;;;10343122;28;20210;-79
2022/05/03 05:44:37;;;;;;;23.50;21.40;;;13.30;99.90;;;;;;10369865;28;20223;-80
2022/05/03 05:49:39;;;;;;;23.40;21.23;;;13.40;99.90;;;;;;10356471;28;20229;-81
2022/05/03 05:54:43;;;;;;;23.90;21.70;;;13.50;99.90;;;;;;10378123;28;20768;-80
2022/05/03 05:59:45;;;;;;;23.33;21.23;;;13.60;99.90;;;;;;10353609;28;20252;-80
2022/05/03 06:04:48;;;;;;;23.80;21.50;;;13.70;99.90;;;;;;10348190;28;20223;-80
2022/05/03 06:09:51;;;;;;;23.63;21.47;;;13.80;99.90;;;;;;10333290;28;20616;-81
2022/05/03 06:14:53;;;;;;;23.10;20.97;;;14.00;99.90;;;;;;10365625;28;20260;-80
2022/05/03 06:19:56;;;;;;;25.07;22.97;;;14.10;99.90;;;;;;10377279;28;20289;-80
2022/05/03 06:24:59;;;;;;;22.67;20.60;;;14.30;99.90;;;;;;10354692;28;20296;-80
2022/05/03 06:30:01;;;;;;;24.70;22.33;;;14.40;99.90;;;;;;10374700;28;20621;-79
2022/05/03 06:35:03;;;;;;;24.67;22.47;;;14.50;99.90;;;;;;10353571;28;20610;-80
2022/05/03 06:40:09;;;;;;;23.90;21.50;;;14.70;99.90;;;;;;10374563;28;20198;-80
2022/05/03 06:45:12;;;;;;;24.40;20.27;;;14.70;99.90;;;;;;10337925;28;20238;-80
2022/05/03 06:50:14;;;;;;;21.47;19.53;;;14.80;99.90;;;;;;10328217;28;20252;-80
2022/05/03 06:55:18;;;;;;;21.30;19.37;;;15.00;99.90;;;;;;10335557;28;20716;-80
2022/05/03 07:00:20;;;;;;;21.67;19.87;;;15.10;99.90;;;;;;10360458;28;20595;-80
2022/05/03 07:05:22;;;;;;;20.40;18.60;;;15.20;99.90;;;;;;10371864;28;20218;-80
2022/05/03 07:10:26;;;;;;;20.97;18.63;;;15.30;99.90;;;;;;10360571;28;20199;-80
2022/05/03 07:15:30;;;;;;;20.90;19.10;;;15.40;99.90;;;;;;10371784;28;20392;-81
2022/05/03 07:25:53;;;;;;;18.67;16.70;;;15.70;99.90;;;;;;10372191;28;20233;-80
2022/05/03 07:30:56;;;;;;;17.90;16.40;;;16.00;99.90;;;;;;10352978;28;20197;-79
2022/05/03 07:35:58;;;;;;;15.77;14.37;;;16.20;99.90;;;;;;10349496;28;20229;-79
2022/05/03 07:41:02;;;;;;;14.53;13.17;;;16.40;99.90;;;;;;10365558;28;20592;-79
2022/05/03 07:46:04;;;;;;;12.80;11.80;;;16.70;99.90;;;;;;10357147;28;20234;-80
2022/05/03 07:51:06;;;;;;;13.77;12.53;;;17.00;99.90;;;;;;10360682;28;20206;-80
2022/05/03 07:56:10;;;;;;;9.70;8.90;;;17.40;99.90;;;;;;10357112;28;20226;-80
2022/05/03 08:01:12;;;;;;;8.33;7.73;;;17.60;99.90;;;;;;10374924;28;20199;-81
2022/05/03 08:06:14;;;;;;;8.43;7.83;;;17.90;99.90;;;;;;10345912;28;20593;-80
2022/05/03 08:11:18;;;;;;;8.63;7.83;;;18.20;99.90;;;;;;10355622;28;20546;-80
2022/05/03 08:16:21;;;;;;;9.40;8.70;;;18.40;99.90;;;;;;10349893;28;20206;-80
2022/05/03 08:21:24;;;;;;;8.00;7.30;;;18.80;99.90;;;;;;10346002;28;20618;-80
2022/05/03 08:26:30;;;;;;;7.57;6.87;;;19.20;99.90;;;;;;10357697;28;20229;-80
2022/05/03 08:31:33;;;;;;;7.10;6.50;;;19.50;99.90;;;;;;10358518;28;20237;-80
2022/05/03 08:36:35;;;;;;;7.93;7.23;;;19.90;99.90;;;;;;10361687;28;20226;-81
2022/05/03 08:47:03;;;;;;;7.03;6.53;;;20.70;99.90;;;;;;10347747;28;20743;-80
2022/05/03 08:52:08;;;;;;;7.10;6.60;;;20.90;99.90;;;;;;10357982;28;20207;-80
2022/05/03 08:57:12;;;;;;;7.60;7.00;;;21.30;99.90;;;;;;10332727;28;20207;-80
2022/05/03 09:02:14;;;;;;;7.90;7.20;;;21.70;98.60;;;;;;10363966;28;20191;-81
2022/05/03 09:07:29;;;;;;;6.80;6.23;;;21.90;94.00;;;;;;10350096;28;20280;-80
2022/05/03 09:12:33;;;;;;;9.13;7.43;;;22.10;95.40;;;;;;10349501;28;20208;-81
2022/05/03 09:17:39;;;;;;;4.90;4.50;;;22.30;96.10;;;;;;10365709;28;20481;-80
2022/05/03 09:28:07;;;;;;;7.67;7.07;;;22.70;92.70;;;;;;10340965;28;20233;-80
2022/05/03 09:33:15;;;;;;;6.90;6.40;;;22.70;92.70;;;;;;10355240;28;20219;-80
2022/05/03 09:38:22;;;;;;;6.50;6.03;;;22.70;91.10;;;;;;10357766;28;20195;-80
2022/05/03 09:43:27;;;;;;;5.50;5.17;;;22.60;93.00;;;;;;10353563;28;20250;-79
2022/05/03 09:48:52;;;;;;;7.43;6.93;;;22.50;93.50;;;;;;10343981;28;20651;-80
2022/05/03 09:54:00;;;;;;;6.53;6.03;;;22.50;92.70;;;;;;10325857;28;20218;-80
2022/05/03 09:59:08;;;;;;;5.17;4.87;;;22.40;92.90;;;;;;10316026;28;20191;-82
2022/05/03 10:04:14;;;;;;;6.10;5.60;;;22.50;94.60;;;;;;10313154;28;20219;-82
2022/05/03 10:09:16;;;;;;;5.70;5.40;;;22.60;93.60;;;;;;10354032;28;20223;-82
2022/05/03 10:14:20;;;;;;;6.20;5.70;;;22.70;94.90;;;;;;10364030;28;20250;-82
2022/05/03 10:24:54;;;;;;;8.53;7.03;;;22.70;92.50;;;;;;10332640;28;20219;-81
2022/05/03 10:30:19;;;;;;;5.73;5.23;;;22.30;91.70;;;;;;10353808;28;20200;-81
2022/05/03 10:35:34;;;;;;;5.53;5.13;;;21.70;93.20;;;;;;10337128;28;20548;-81
2022/05/03 10:40:41;;;;;;;7.87;7.27;;;21.20;94.50;;;;;;10331675;28;20199;-81
2022/05/03 10:45:53;;;;;;;6.57;5.97;;;20.80;90.90;;;;;;10345045;28;20246;-81
2022/05/03 10:50:58;;;;;;;6.33;5.83;;;20.40;94.30;;;;;;10344678;28;20216;-80
2022/05/03 10:56:23;;;;;;;6.47;6.00;;;20.10;96.60;;;;;;10362924;28;20215;-81
2022/05/03 11:01:27;;;;;;;7.30;6.67;;;19.90;97.00;;;;;;10349328;28;20253;-81
2022/05/03 11:06:49;;;;;;;7.30;6.80;;;19.70;94.70;;;;;;10383170;28;20284;-81
2022/05/03 11:12:08;;;;;;;6.63;6.23;;;19.60;92.70;;;;;;10355685;28;20236;-82
2022/05/03 11:17:12;;;;;;;6.60;6.10;;;19.50;96.10;;;;;;10379964;28;20653;-82
2022/05/03 11:22:16;;;;;;;5.50;5.20;;;19.40;94.10;;;;;;10362379;28;20229;-82
2022/05/03 11:27:19;;;;;;;6.50;6.10;;;19.30;97.00;;;;;;10388273;28;20237;-80
2022/05/03 11:32:30;;;;;;;6.67;6.27;;;19.30;96.40;;;;;;10371549;28;20198;-81
2022/05/03 11:37:33;;;;;;;5.73;5.33;;;19.40;94.50;;;;;;10382359;28;20209;-82
2022/05/03 11:42:44;;;;;;;6.20;5.80;;;19.50;96.30;;;;;;10382884;28;20285;-81
2022/05/03 11:47:50;;;;;;;7.37;6.87;;;19.40;96.50;;;;;;10366122;28;20261;-82
2022/05/03 11:58:12;;;;;;;6.80;6.20;;;19.30;96.10;;;;;;10365127;28;20226;-82
2022/05/03 12:03:16;;;;;;;5.00;4.70;;;19.30;95.80;;;;;;10374468;28;20225;-82
2022/05/03 12:08:20;;;;;;;7.90;7.30;;;19.40;97.70;;;;;;10380366;28;20227;-82
2022/05/03 12:13:30;;;;;;;6.30;5.77;;;19.40;96.60;;;;;;10350411;28;20218;-81
2022/05/03 12:18:35;;;;;;;4.97;4.67;;;19.50;94.40;;;;;;10386600;28;20233;-82
2022/05/03 12:23:43;;;;;;;4.90;4.60;;;19.70;95.60;;;;;;10353516;28;20345;-82
2022/05/03 12:28:47;;;;;;;5.50;5.20;;;20.10;94.90;;;;;;10347118;28;20237;-82
2022/05/03 12:33:54;;;;;;;6.30;5.73;;;20.50;95.10;;;;;;10363421;28;20647;-82
2022/05/03 12:38:57;;;;;;;5.60;5.20;;;20.60;95.00;;;;;;10387237;28;20270;-81
2022/05/03 12:44:02;;;;;;;5.57;5.17;;;20.50;93.70;;;;;;10365258;28;20238;-81
2022/05/03 12:49:11;;;;;;;5.67;5.27;;;20.40;93.10;;;;;;10365646;28;20225;-82
2022/05/03 12:54:14;;;;;;;6.07;5.60;;;20.20;94.70;;;;;;10349151;28;20250;-82
2022/05/03 12:59:17;;;;;;;5.30;4.77;;;20.00;93.80;;;;;;10356876;28;20195;-82
2022/05/03 13:04:21;;;;;;;4.97;4.57;;;19.80;93.20;;;;;;10331870;28;20230;-82
2022/05/03 13:09:31;;;;;;;5.60;5.10;;;19.20;94.40;;;;;;10361346;28;20230;-82
2022/05/03 13:14:34;;;;;;;6.67;6.17;;;18.40;97.10;;;;;;10368953;28;20234;-83
2022/05/03 13:19:37;;;;;;;7.53;5.23;;;17.90;99.60;;;;;;10374738;28;20621;-81
2022/05/03 13:24:39;;;;;;;6.67;5.97;;;17.70;99.40;;;;;;10358293;28;20249;-81
2022/05/03 13:29:41;;;;;;;5.83;5.10;;;17.50;99.90;;;;;;10383802;28;20222;-81
2022/05/03 13:34:51;;;;;;;5.40;5.00;;;17.30;99.90;;;;;;10352717;28;20294;-82
2022/05/03 13:45:13;;;;;;;5.43;5.03;;;17.10;99.90;;;;;;10355646;28;20293;-81
2022/05/03 13:50:17;;;;;;;5.93;5.43;;;17.10;99.90;;;;;;10358513;28;20297;-81
2022/05/03 13:55:19;;;;;;;6.47;5.97;;;17.10;99.90;;;;;;10363833;28;20218;-82
2022/05/03 14:00:21;;;;;;;6.70;6.20;;;17.00;99.90;;;;;;10355346;28;20229;-81
2022/05/03 14:05:26;;;;;;;6.90;6.23;;;17.00;99.90;;;;;;10382746;28;20241;-81
2022/05/03 14:10:30;;;;;;;8.33;7.53;;;16.90;99.90;;;;;;10376278;28;20222;-81
2022/05/03 14:15:32;;;;;;;9.17;8.40;;;16.70;99.90;;;;;;10364936;28;20288;-81
2022/05/03 14:20:36;;;;;;;9.97;9.07;;;16.50;99.90;;;;;;10378710;28;20276;-81
2022/05/03 14:25:40;;;;;;;12.17;11.07;;;16.20;99.90;;;;;;10379266;28;20241;-81
2022/05/03 14:30:42;;;;;;;12.07;11.27;;;16.00;99.90;;;;;;10369144;28;20230;-81
2022/05/03 14:35:50;;;;;;;11.30;10.50;;;15.80;99.90;;;;;;10369029;28;20241;-81
2022/05/03 14:41:06;;;;;;;8.30;7.80;;;15.60;99.90;;;;;;10341840;28;20320;-81
2022/05/03 14:46:08;;;;;;;7.83;7.30;;;15.30;99.90;;;;;;10378492;28;20219;-81
2022/05/03 14:51:12;;;;;;;7.97;7.27;;;15.00;99.90;;;;;;10360868;28;20230;-81
2022/05/03 15:06:55;;;;;;;7.40;6.90;;;14.70;99.90;;;;;;10358670;28;20619;-81
2022/05/03 15:11:57;;;;;;;8.30;7.70;;;14.70;99.90;;;;;;10348999;28;20272;-81
2022/05/03 15:17:00;;;;;;;6.90;6.30;;;14.80;99.90;;;;;;10355337;28;20214;-81
2022/05/03 15:22:04;;;;;;;7.90;7.40;;;14.80;99.90;;;;;;10357175;28;20221;-81
2022/05/03 15:27:08;;;;;;;7.13;6.60;;;14.80;99.90;;;;;;10376101;28;20297;-81
2022/05/03 15:32:28;;;;;;;7.83;7.20;;;14.80;99.90;;;;;;10357790;28;20213;-81
2022/05/03 15:37:32;;;;;;;8.27;7.00;;;14.80;99.90;;;;;;10367439;28;20210;-80
2022/05/03 15:42:35;;;;;;;7.53;6.60;;;14.90;99.90;;;;;;10341755;28;20203;-81
2022/05/03 15:47:37;;;;;;;9.33;5.57;;;14.90;99.90;;;;;;10338012;28;20289;-81
2022/05/03 15:52:44;;;;;;;6.80;6.20;;;14.90;99.90;;;;;;10353806;28;20231;-81
2022/05/03 15:57:47;;;;;;;6.37;5.87;;;14.90;99.90;;;;;;10358642;28;20205;-81
2022/05/03 16:02:50;;;;;;;7.40;6.67;;;14.90;99.90;;;;;;10350871;28;20242;-81
2022/05/03 16:07:54;;;;;;;7.70;7.20;;;15.00;99.90;;;;;;10341071;28;20267;-81
2022/05/03 16:12:56;;;;;;;7.53;6.93;;;15.10;99.90;;;;;;10361170;28;20219;-81
2022/05/03 16:17:58;;;;;;;8.10;7.50;;;15.20;99.90;;;;;;10351825;28;20235;-81
2022/05/03 16:23:02;;;;;;;9.00;8.07;;;15.40;99.90;;;;;;10355106;28;20222;-82
2022/05/03 16:28:08;;;;;;;10.97;10.07;;;15.50;99.90;;;;;;10357807;28;20226;-81
2022/05/03 16:33:15;;;;;;;13.03;10.13;;;15.70;99.90;;;;;;10346506;28;20226;-83
2022/05/03 16:43:39;;;;;;;7.37;6.83;;;15.90;99.90;;;;;;10357965;28;20310;-83
2022/05/03 16:48:41;;;;;;;8.37;7.67;;;15.90;99.90;;;;;;10374047;28;20228;-81
2022/05/03 16:53:44;;;;;;;8.87;8.00;;;16.00;99.90;;;;;;10361009;28;20297;-81
2022/05/03 16:58:47;;;;;;;8.43;7.73;;;16.10;99.90;;;;;;10356214;28;20217;-81
2022/05/03 17:03:49;;;;;;;9.30;8.50;;;16.10;99.90;;;;;;10348808;28;20276;-81
2022/05/03 17:08:52;;;;;;;8.83;8.03;;;16.20;99.90;;;;;;10357629;28;20227;-81
2022/05/03 17:13:55;;;;;;;6.30;5.90;;;16.20;99.90;;;;;;10339613;28;20222;-80
2022/05/03 17:18:57;;;;;;;8.60;7.90;;;16.20;99.90;;;;;;10369148;28;20988;-81
2022/05/03 17:24:01;;;;;;;9.00;8.40;;;16.20;99.90;;;;;;10359319;28;20578;-81
2022/05/03 17:29:05;;;;;;;8.30;7.70;;;16.20;99.90;;;;;;10364403;28;20222;-81
2022/05/03 17:34:07;;;;;;;9.00;8.20;;;16.20;99.90;;;;;;10353536;28;20227;-81
2022/05/03 17:39:10;;;;;;;7.57;7.00;;;16.20;99.90;;;;;;10344626;28;20234;-81
2022/05/03 17:44:13;;;;;;;9.37;8.67;;;16.20;99.90;;;;;;10354357;28;20227;-81
2022/05/03 17:49:31;;;;;;;9.30;8.37;;;16.20;99.90;;;;;;10335353;28;20323;-84
2022/05/03 17:54:36;;;;;;;9.37;8.43;;;16.10;99.90;;;;;;10337761;28;20221;-81
2022/05/03 17:59:38;;;;;;;8.30;7.60;;;16.10;99.90;;;;;;10321593;28;20610;-81
2022/05/03 18:04:40;;;;;;;8.73;7.73;;;15.90;99.90;;;;;;10322723;28;20678;-83
2022/05/03 18:09:44;;;;;;;7.50;6.80;;;15.80;99.90;;;;;;10328055;28;20259;-82
2022/05/03 18:14:55;;;;;;;7.33;5.63;;;15.70;99.90;;;;;;10345319;28;20582;-81
2022/05/03 18:19:57;;;;;;;7.30;6.80;;;15.60;99.90;;;;;;10322331;28;20194;-81
2022/05/03 18:25:02;;;;;;;7.10;6.53;;;15.50;99.90;;;;;;10369993;28;20262;-80
2022/05/03 18:30:05;;;;;;;7.97;7.33;;;15.40;99.90;;;;;;10359167;28;20328;-80
2022/05/03 18:35:08;;;;;;;8.07;7.37;;;15.30;99.90;;;;;;10361885;28;20238;-79
2022/05/03 18:40:13;;;;;;;6.50;6.10;;;15.10;99.90;;;;;;10324476;28;20207;-79
2022/05/03 18:45:15;;;;;;;6.93;6.40;;;15.00;99.90;;;;;;10334396;28;20234;-79
2022/05/03 18:50:17;;;;;;;6.90;6.30;;;14.90;99.90;;;;;;10369866;28;20226;-79
2022/05/03 19:00:42;;;;;;;6.27;5.80;;;14.70;99.90;;;;;;10315335;28;20230;-79
2022/05/03 19:05:48;;;;;;;6.90;6.37;;;14.60;99.90;;;;;;10326313;28;20230;-79
2022/05/03 19:10:52;;;;;;;6.30;5.70;;;14.60;99.90;;;;;;10309287;28;20722;-79
2022/05/03 19:15:54;;;;;;;11.50;10.40;;;14.50;99.90;;;;;;10331693;28;20307;-78
2022/05/03 19:20:56;;;;;;;16.07;14.40;;;14.50;99.90;;;;;;10346136;28;20230;-78
2022/05/03 19:31:19;;;;;;;8.80;8.10;;;14.40;99.90;;;;;;10353146;28;20214;-78
2022/05/03 19:36:22;;;;;;;7.57;6.97;;;14.40;99.90;;;;;;10346889;28;20234;-79
2022/05/03 19:41:25;;;;;;;6.83;6.23;;;14.40;99.90;;;;;;10328409;28;20293;-79
2022/05/03 19:46:27;;;;;;;7.23;6.73;;;14.30;99.90;;;;;;10358277;28;20253;-79
2022/05/03 19:51:37;;;;;;;5.20;4.80;;;14.30;99.90;;;;;;10332711;28;20225;-79
2022/05/03 19:56:41;;;;;;;7.70;7.10;;;14.30;99.90;;;;;;10341643;28;20231;-79
2022/05/03 20:01:43;;;;;;;7.30;6.70;;;14.30;99.90;;;;;;10362566;28;20212;-79
2022/05/03 20:06:45;;;;;;;7.20;6.50;;;14.30;99.90;;;;;;10368020;28;20229;-80
2022/05/03 20:12:08;;;;;;;8.63;7.93;;;14.30;99.90;;;;;;10385942;28;20203;-82
2022/05/03 20:17:12;;;;;;;7.43;6.83;;;14.30;99.90;;;;;;10393587;28;20301;-81
2022/05/03 20:22:14;;;;;;;7.40;6.90;;;14.30;99.90;;;;;;10395805;28;20585;-80
2022/05/03 20:27:18;;;;;;;6.87;6.30;;;14.40;99.90;;;;;;10370045;28;20249;-81
2022/05/03 20:32:20;;;;;;;7.77;7.00;;;14.40;99.90;;;;;;10409016;28;20203;-81
2022/05/03 20:37:23;;;;;;;7.47;6.90;;;14.50;99.90;;;;;;10365446;28;20215;-82
2022/05/03 20:42:26;;;;;;;7.73;7.20;;;14.50;99.90;;;;;;10388878;28;20596;-82
2022/05/03 20:52:48;;;;;;;7.57;7.07;;;14.50;99.90;;;;;;10381373;28;20214;-82
2022/05/03 20:57:52;;;;;;;7.57;6.93;;;14.40;99.90;;;;;;10383109;28;20284;-80
2022/05/03 21:02:54;;;;;;;9.10;8.40;;;14.40;99.90;;;;;;10388766;28;20368;-82
2022/05/03 21:07:57;;;;;;;7.53;7.03;;;14.40;99.90;;;;;;10372284;28;20222;-82
2022/05/03 21:13:00;;;;;;;9.67;8.87;;;14.30;99.90;;;;;;10347760;28;20293;-81
2022/05/03 21:18:03;;;;;;;7.93;7.23;;;14.30;99.90;;;;;;10360916;28;20207;-82
2022/05/03 21:23:05;;;;;;;8.00;7.30;;;14.30;99.90;;;;;;10359571;28;20758;-81
2022/05/03 21:28:09;;;;;;;7.80;7.10;;;14.20;99.90;;;;;;10360497;28;20581;-80
2022/05/03 21:33:11;;;;;;;7.60;7.00;;;14.20;99.90;;;;;;10336740;28;20249;-80
2022/05/03 21:38:19;;;;;;;7.83;7.33;;;14.10;99.90;;;;;;10350423;28;20253;-82
2022/05/03 21:43:23;;;;;;;8.50;7.90;;;14.10;99.90;;;;;;10376045;28;20238;-82
2022/05/03 21:48:26;;;;;;;8.70;7.80;;;14.10;99.90;;;;;;10354324;28;20289;-81
2022/05/03 21:53:29;;;;;;;8.40;7.70;;;14.00;99.90;;;;;;10360914;28;20226;-81
2022/05/03 21:58:39;;;;;;;8.43;7.77;;;14.00;99.90;;;;;;10360341;28;20206;-80
2022/05/03 22:03:44;;;;;;;7.77;7.20;;;13.90;99.90;;;;;;10349114;28;20215;-80
2022/05/03 22:08:46;;;;;;;7.97;7.37;;;13.90;99.90;;;;;;10343832;28;20578;-79
2022/05/03 22:13:50;;;;;;;8.23;7.43;;;13.90;99.90;;;;;;10351643;28;20702;-80
2022/05/03 22:18:52;;;;;;;8.83;8.13;;;13.90;99.90;;;;;;10362944;28;20198;-80
2022/05/03 22:23:54;;;;;;;8.50;7.80;;;13.90;99.90;;;;;;10352677;28;20222;-81
2022/05/03 22:28:58;;;;;;;8.10;7.30;;;13.80;99.90;;;;;;10359667;28;20265;-81
2022/05/03 22:34:00;;;;;;;8.00;7.40;;;13.80;99.90;;;;;;10365202;28;20276;-81
2022/05/03 22:39:02;;;;;;;8.00;7.30;;;13.80;99.90;;;;;;10362856;28;20237;-81
2022/05/03 22:44:05;;;;;;;8.00;7.30;;;13.80;99.90;;;;;;10365940;28;20222;-80
2022/05/03 22:49:09;;;;;;;8.53;7.90;;;13.80;99.90;;;;;;10345281;28;20242;-80
2022/05/03 22:54:11;;;;;;;8.50;7.90;;;13.80;99.90;;;;;;10366253;28;20234;-81
2022/05/03 22:59:14;;;;;;;8.57;7.97;;;13.80;99.90;;;;;;10359870;28;20199;-81
2022/05/03 23:04:17;;;;;;;7.73;7.13;;;13.80;99.90;;;;;;10344334;28;20282;-81
2022/05/03 23:09:19;;;;;;;8.00;7.33;;;13.70;99.90;;;;;;10344575;28;20222;-80
2022/05/03 23:14:22;;;;;;;9.13;8.43;;;13.60;99.90;;;;;;10372651;28;20309;-81
2022/05/03 23:19:24;;;;;;;8.40;7.80;;;13.50;99.90;;;;;;10319716;28;20253;-81
2022/05/03 23:24:26;;;;;;;8.37;7.73;;;13.50;99.90;;;;;;10360092;28;20375;-81
2022/05/03 23:29:30;;;;;;;8.63;7.70;;;13.40;99.90;;;;;;10362081;28;20230;-79
2022/05/03 23:39:52;;;;;;;8.77;8.07;;;13.40;99.90;;;;;;10352780;28;20220;-80
2022/05/03 23:46:06;;;;;;;9.70;8.90;;;13.30;99.90;;;;;;10365373;28;20278;-80
2022/05/03 23:50:18;;;;;;;9.20;8.40;;;13.30;99.90;;;;;;10365645;28;20226;-80
2022/05/03 23:55:20;;;;;;;10.00;9.20;;;13.30;99.90;;;;;;10374457;28;20639;-81
